Flugplatz Donauwörth-Genderkingen

Für EDMQ sind keine METAR/TAF Berichte vorhanden.
Es werden die Flugwettermeldungen vom Flugplatz Neuburg Airport in 26 km Entfernung angezeigt.

Bericht für ETSN

vom 17.09. um 13:20 UTC

Wind 12 kt aus 290°

Sichtweite 10 km oder mehr

gering bewölkt in 2300 ft

aufgebrochene Bewölkung in 3000 ft

Temperatur 18.0°C

Taupunkt 12.0°C

Luftfeuchtigkeit 68%

Luftdruck 1019 hPa

ETSN 171320Z 29012KT 9999 FEW023 BKN030 18/12 Q1019 BLU BLU

Prognose für ETSN

vom 17.09. um 00:00 UTC

Zwischen 00:00 UTC und 00:00 UTC

Wind 8 kt aus 290°

Sichtweite 10 km oder mehr

keine signifikanten Wettererscheinungen

gering bewölkt in 1500 ft

aufgebrochene Bewölkung in 3000 ft

TAF ETSN 171320Z 1714/1723 29008KT 9999 NSW FEW015 BKN030 BY ETGL
Impressum